createdAt,value
2022-09-12T00:02:34.030Z,0.04
2022-09-12T00:05:34.022Z,0.06
2022-09-12T00:08:34.038Z,0
2022-09-12T00:11:34.001Z,0.04
2022-09-12T00:14:34.021Z,0.26
2022-09-12T00:17:34.018Z,0.31
2022-09-12T00:20:34.035Z,0.11
2022-09-12T00:23:34.023Z,0.02
2022-09-12T00:26:34.056Z,0
2022-09-12T00:29:34.066Z,0
2022-09-12T00:32:34.002Z,0
2022-09-12T00:35:34.038Z,0
2022-09-12T00:38:34.021Z,0
2022-09-12T00:41:34.066Z,0
2022-09-12T00:44:34.061Z,0.02
2022-09-12T00:47:34.042Z,0.16
2022-09-12T00:50:34.037Z,0.2
2022-09-12T00:53:34.038Z,0.05
2022-09-12T00:56:34.090Z,0
2022-09-12T00:59:34.092Z,0.06
2022-09-12T01:02:34.066Z,0.19
2022-09-12T01:05:34.036Z,0.18
2022-09-12T01:08:34.067Z,0
2022-09-12T01:11:34.067Z,0
2022-09-12T01:14:34.063Z,0
2022-09-12T01:17:34.096Z,0
2022-09-12T01:20:34.161Z,0.03
2022-09-12T01:23:34.091Z,0
2022-09-12T01:26:34.081Z,0
2022-09-12T01:29:36.599Z,0.05
2022-09-12T01:32:34.078Z,0.17
2022-09-12T01:35:34.096Z,0.17
2022-09-12T01:38:34.151Z,0.14
2022-09-12T01:41:34.086Z,0.09
2022-09-12T01:44:34.103Z,0.03
2022-09-12T01:47:34.075Z,0
2022-09-12T01:50:34.083Z,0
2022-09-12T01:53:34.121Z,0
2022-09-12T01:56:34.096Z,0
2022-09-12T01:59:34.111Z,0
2022-09-12T02:02:34.117Z,0
2022-09-12T02:05:34.117Z,0
2022-09-12T02:08:34.098Z,0
2022-09-12T02:11:34.130Z,0
2022-09-12T02:14:34.131Z,0
2022-09-12T02:17:34.122Z,0
2022-09-12T02:20:49.471Z,0
2022-09-12T02:23:34.099Z,0
2022-09-12T02:26:34.142Z,0
2022-09-12T02:29:34.129Z,0
2022-09-12T02:32:34.141Z,0
2022-09-12T02:35:34.146Z,0
2022-09-12T02:38:34.142Z,0
2022-09-12T02:41:34.147Z,0
2022-09-12T02:44:34.201Z,0
2022-09-12T02:47:34.194Z,0
2022-09-12T02:50:34.176Z,0
2022-09-12T02:53:34.136Z,0
2022-09-12T02:56:34.187Z,0
2022-09-12T02:59:34.158Z,0
2022-09-12T03:02:34.199Z,0
2022-09-12T03:05:34.189Z,0
2022-09-12T03:08:34.142Z,0
2022-09-12T03:11:34.181Z,0
2022-09-12T03:14:34.157Z,0
2022-09-12T03:17:34.173Z,0
2022-09-12T03:20:34.199Z,0
2022-09-12T03:23:34.209Z,0
2022-09-12T03:26:34.197Z,0
2022-09-12T03:29:34.187Z,0
2022-09-12T03:32:34.182Z,0
2022-09-12T03:35:34.187Z,0
2022-09-12T03:38:34.216Z,0
2022-09-12T03:41:34.239Z,0
2022-09-12T03:44:34.172Z,0
2022-09-12T03:47:34.216Z,0
2022-09-12T03:50:34.188Z,0
2022-09-12T03:53:34.232Z,0
2022-09-12T03:56:34.208Z,0
2022-09-12T03:59:34.194Z,0
2022-09-12T04:02:34.231Z,0
2022-09-12T04:05:34.206Z,0
2022-09-12T04:08:34.330Z,0
2022-09-12T04:11:34.219Z,0.23
2022-09-12T04:14:34.231Z,0.32
2022-09-12T04:17:34.234Z,0.4
2022-09-12T04:20:34.308Z,0.29
2022-09-12T04:23:34.253Z,0.3
2022-09-12T04:26:34.252Z,0.16
2022-09-12T04:29:34.312Z,0.14
2022-09-12T04:32:34.251Z,0.08
2022-09-12T04:35:34.214Z,0.04
2022-09-12T04:38:34.287Z,0.01
2022-09-12T04:41:34.261Z,0.01
2022-09-12T04:44:34.242Z,0
2022-09-12T04:47:34.238Z,0.01
2022-09-12T04:50:34.254Z,0
2022-09-12T04:53:34.244Z,0
2022-09-12T04:56:34.266Z,0
2022-09-12T04:59:34.273Z,0
2022-09-12T05:02:34.265Z,0
2022-09-12T05:05:34.279Z,0
2022-09-12T05:08:34.268Z,0
2022-09-12T05:12:00.003Z,0
2022-09-12T05:14:38.234Z,0
2022-09-12T05:17:34.257Z,0
2022-09-12T05:20:34.267Z,0
2022-09-12T05:23:34.263Z,0
2022-09-12T05:26:34.295Z,0
2022-09-12T05:29:34.270Z,0
2022-09-12T05:32:34.310Z,0
2022-09-12T05:35:34.317Z,0
2022-09-12T05:38:34.268Z,0
2022-09-12T05:41:35.670Z,0
2022-09-12T05:44:36.409Z,0.01
2022-09-12T05:47:34.314Z,0.03
2022-09-12T05:50:34.317Z,0
2022-09-12T05:53:34.313Z,0
2022-09-12T05:56:34.288Z,0
2022-09-12T05:59:34.317Z,0
2022-09-12T06:02:34.328Z,0
2022-09-12T06:05:34.281Z,0
2022-09-12T06:08:34.367Z,0
2022-09-12T06:11:34.417Z,0
2022-09-12T06:14:34.308Z,0
2022-09-12T06:17:34.302Z,0.09
2022-09-12T06:20:34.348Z,0.02
2022-09-12T06:23:34.325Z,0.06
2022-09-12T06:26:34.368Z,0
2022-09-12T06:29:34.343Z,0
2022-09-12T06:32:34.352Z,0.02
2022-09-12T06:35:34.394Z,0
2022-09-12T06:38:34.364Z,0
2022-09-12T06:41:34.340Z,0
2022-09-12T06:44:34.382Z,0
2022-09-12T06:47:34.346Z,0.11
2022-09-12T06:50:34.337Z,0.14
2022-09-12T06:53:34.368Z,0.3
2022-09-12T06:56:34.364Z,0.04
2022-09-12T06:59:34.354Z,0.11
2022-09-12T07:02:34.408Z,0.11
2022-09-12T07:05:34.347Z,0.3
2022-09-12T07:08:34.409Z,0.33
2022-09-12T07:11:34.363Z,0.25
2022-09-12T07:14:34.391Z,0.13
2022-09-12T07:17:34.374Z,0.08
2022-09-12T07:20:34.378Z,0.21
2022-09-12T07:23:34.362Z,0.37
2022-09-12T07:26:34.363Z,0.21
2022-09-12T07:29:37.313Z,0.32
2022-09-12T07:32:34.374Z,0.22
2022-09-12T07:35:34.399Z,0.08
2022-09-12T07:38:34.414Z,0.08
2022-09-12T07:41:34.387Z,0.27
2022-09-12T07:44:34.437Z,0.34
2022-09-12T07:47:34.427Z,0.23
2022-09-12T07:50:34.413Z,0.05
2022-09-12T07:53:34.431Z,0.11
2022-09-12T07:56:38.334Z,0.12
2022-09-12T07:59:51.825Z,0.11
2022-09-12T08:02:34.436Z,0.32
2022-09-12T08:05:34.393Z,0.63
2022-09-12T08:08:34.443Z,0.51
2022-09-12T08:11:34.422Z,0.89
2022-09-12T08:14:34.463Z,0.4
2022-09-12T08:17:34.438Z,0.79
2022-09-12T08:20:34.447Z,0.65
2022-09-12T08:23:34.436Z,0.33
2022-09-12T08:26:34.433Z,0.89
2022-09-12T08:29:34.453Z,0.79
2022-09-12T08:32:34.420Z,0.71
2022-09-12T08:35:34.458Z,0.83
2022-09-12T08:38:34.458Z,0.63
2022-09-12T08:41:34.434Z,0.83
2022-09-12T08:44:34.489Z,0.77
2022-09-12T08:47:34.469Z,0.59
2022-09-12T08:50:34.459Z,0.88
2022-09-12T08:53:34.493Z,0.99
2022-09-12T08:56:34.452Z,0.5
2022-09-12T08:59:34.455Z,0.75
2022-09-12T09:02:34.572Z,0.66
2022-09-12T09:05:34.487Z,0.44
2022-09-12T09:08:34.506Z,0.73
2022-09-12T09:11:34.457Z,0.44
2022-09-12T09:14:34.527Z,0.81
2022-09-12T09:17:34.490Z,1.01
2022-09-12T09:20:34.456Z,0.45
2022-09-12T09:23:34.484Z,0.4
2022-09-12T09:26:35.887Z,0.38
2022-09-12T09:29:34.517Z,1.06
2022-09-12T09:32:34.505Z,0.77
2022-09-12T09:35:36.596Z,0.92
2022-09-12T09:38:34.479Z,0.96
2022-09-12T09:41:34.549Z,1.13
2022-09-12T09:44:34.501Z,0.69
2022-09-12T09:47:34.519Z,0.48
2022-09-12T09:50:34.537Z,0.78
2022-09-12T09:53:34.518Z,0.73
2022-09-12T09:56:34.559Z,0.65
2022-09-12T09:59:34.510Z,0.54
2022-09-12T10:02:34.593Z,0.44
2022-09-12T10:05:34.541Z,1.06
2022-09-12T10:08:34.570Z,0.48
2022-09-12T10:11:34.542Z,0.54
2022-09-12T10:14:34.522Z,0.16
2022-09-12T10:17:34.823Z,0.41
2022-09-12T10:20:34.524Z,0.67
2022-09-12T10:23:34.553Z,0.69
2022-09-12T10:26:34.543Z,0.38
2022-09-12T10:29:34.557Z,0.72
2022-09-12T10:32:34.568Z,0.69
2022-09-12T10:35:34.538Z,0.85
2022-09-12T10:38:34.594Z,0.54
2022-09-12T10:41:34.572Z,0.7
2022-09-12T10:44:34.579Z,0.94
2022-09-12T10:47:34.567Z,0.7
2022-09-12T10:50:34.568Z,1
2022-09-12T10:53:34.918Z,0.84
2022-09-12T10:56:34.603Z,1.01
2022-09-12T10:59:34.560Z,0.61
2022-09-12T11:02:34.656Z,0.94
2022-09-12T11:05:34.643Z,0.9
2022-09-12T11:08:34.609Z,0.45
2022-09-12T11:11:34.605Z,0.65
2022-09-12T11:14:34.615Z,0.68
2022-09-12T11:17:34.600Z,0.66
2022-09-12T11:20:34.624Z,0.62
2022-09-12T11:23:34.623Z,0.69
2022-09-12T11:26:34.597Z,0.6
2022-09-12T11:29:34.649Z,0.82
2022-09-12T11:32:34.590Z,0.88
2022-09-12T11:35:34.651Z,0.98
2022-09-12T11:38:34.642Z,0.46
2022-09-12T11:41:34.628Z,0.34
2022-09-12T11:44:36.751Z,0.56
2022-09-12T11:47:34.651Z,0.25
2022-09-12T11:50:34.616Z,0.29
2022-09-12T11:53:34.637Z,0.52
2022-09-12T11:56:34.622Z,0.73
2022-09-12T11:59:34.653Z,0.69
2022-09-12T12:02:34.649Z,0.67
2022-09-12T12:05:34.654Z,0.99
2022-09-12T12:08:34.681Z,0.8
2022-09-12T12:11:34.652Z,0.42
2022-09-12T12:14:34.667Z,0.6
2022-09-12T12:17:34.713Z,0.62
2022-09-12T12:20:34.623Z,0.73
2022-09-12T12:23:34.747Z,0.77
2022-09-12T12:26:34.656Z,0.52
2022-09-12T12:29:34.696Z,0.48
2022-09-12T12:32:34.638Z,0.45
2022-09-12T12:35:34.665Z,0.52
2022-09-12T12:38:34.668Z,0.41
2022-09-12T12:41:34.688Z,0.83
2022-09-12T12:44:34.686Z,0.5
2022-09-12T12:47:34.703Z,0.66
2022-09-12T12:50:34.708Z,0.56
2022-09-12T12:53:34.715Z,0.51
2022-09-12T12:56:34.719Z,0.26
2022-09-12T12:59:34.703Z,0.51
2022-09-12T13:02:34.724Z,0.76
2022-09-12T13:05:34.692Z,0.59
2022-09-12T13:08:34.719Z,0.39
2022-09-12T13:11:34.694Z,0.56
2022-09-12T13:14:34.728Z,0.61
2022-09-12T13:17:34.706Z,0.55
2022-09-12T13:20:34.705Z,0.61
2022-09-12T13:23:34.735Z,0.62
2022-09-12T13:26:34.774Z,0.34
2022-09-12T13:29:34.685Z,0.46
2022-09-12T13:32:34.731Z,0.85
2022-09-12T13:35:34.745Z,0.75
2022-09-12T13:38:34.724Z,0.55
2022-09-12T13:41:34.742Z,0.1
2022-09-12T13:44:34.693Z,0.38
2022-09-12T13:47:34.745Z,0.69
2022-09-12T13:50:34.721Z,0.59
2022-09-12T13:53:34.744Z,0.81
2022-09-12T13:56:34.720Z,0.38
2022-09-12T13:59:34.753Z,0.62
2022-09-12T14:02:34.808Z,0.74
2022-09-12T14:05:34.750Z,0.66
2022-09-12T14:08:34.766Z,0.79
2022-09-12T14:11:34.745Z,0.67
2022-09-12T14:14:34.756Z,0.56
2022-09-12T14:17:34.735Z,0.83
2022-09-12T14:20:34.785Z,0.57
2022-09-12T14:23:34.774Z,0.33
2022-09-12T14:26:34.744Z,0.86
2022-09-12T14:29:34.775Z,0.76
2022-09-12T14:32:34.795Z,0.77
2022-09-12T14:35:34.771Z,0.64
2022-09-12T14:38:34.812Z,0.43
2022-09-12T14:41:34.781Z,0.73
2022-09-12T14:44:34.804Z,1.18
2022-09-12T14:47:34.776Z,0.7
2022-09-12T14:50:34.808Z,0.63
2022-09-12T14:53:34.772Z,1.02
2022-09-12T14:56:35.010Z,0.81
2022-09-12T14:59:34.789Z,0.89
2022-09-12T15:02:34.799Z,0.35
2022-09-12T15:05:34.816Z,0.08
2022-09-12T15:08:34.786Z,0.88
2022-09-12T15:11:34.825Z,0.73
2022-09-12T15:14:34.827Z,0.53
2022-09-12T15:17:34.805Z,0.79
2022-09-12T15:20:34.813Z,0.93
2022-09-12T15:23:34.804Z,0.86
2022-09-12T15:26:34.848Z,0.69
2022-09-12T15:29:34.834Z,0.61
2022-09-12T15:32:34.843Z,0.47
2022-09-12T15:35:34.848Z,0.5
2022-09-12T15:38:34.814Z,0.7
2022-09-12T15:41:34.860Z,0.5
2022-09-12T15:44:34.860Z,0.52
2022-09-12T15:47:34.960Z,0.7
2022-09-12T15:50:34.828Z,0.86
2022-09-12T15:53:34.965Z,0.33
2022-09-12T15:56:34.861Z,0.58
2022-09-12T15:59:34.983Z,0.39
2022-09-12T16:02:34.872Z,0.17
2022-09-12T16:05:34.881Z,0.18
2022-09-12T16:08:34.860Z,0.33
2022-09-12T16:11:34.854Z,0.39
2022-09-12T16:14:34.879Z,0.14
2022-09-12T16:17:34.915Z,0.25
2022-09-12T16:20:34.839Z,0.31
2022-09-12T16:23:34.879Z,0.34
2022-09-12T16:26:34.841Z,0.4
2022-09-12T16:29:34.895Z,0.26
2022-09-12T16:32:34.849Z,0.31
2022-09-12T16:35:34.893Z,0.27
2022-09-12T16:38:34.909Z,0.24
2022-09-12T16:41:34.908Z,0.15
2022-09-12T16:44:34.922Z,0.11
2022-09-12T16:47:34.881Z,0.21
2022-09-12T16:50:34.949Z,0.3
2022-09-12T16:53:34.878Z,0.28
2022-09-12T16:56:34.947Z,0.23
2022-09-12T16:59:37.435Z,0.24
2022-09-12T17:02:34.930Z,0.14
2022-09-12T17:05:34.907Z,0.13
2022-09-12T17:08:34.917Z,0.24
2022-09-12T17:11:35.005Z,0.15
2022-09-12T17:14:34.919Z,0.12
2022-09-12T17:17:34.974Z,0.16
2022-09-12T17:20:34.936Z,0.16
2022-09-12T17:23:34.929Z,0.09
2022-09-12T17:26:34.944Z,0.14
2022-09-12T17:29:34.919Z,0.22
2022-09-12T17:32:34.959Z,0.12
2022-09-12T17:35:34.951Z,0.21
2022-09-12T17:38:34.945Z,0.19
2022-09-12T17:41:34.944Z,0.18
2022-09-12T17:44:34.959Z,0.06
2022-09-12T17:47:34.959Z,0.09
2022-09-12T17:50:38.826Z,0.14
2022-09-12T17:53:34.965Z,0.14
2022-09-12T17:56:34.945Z,0.27
2022-09-12T17:59:34.951Z,0.16
2022-09-12T18:02:34.944Z,0.43
2022-09-12T18:05:34.989Z,0.37
2022-09-12T18:08:34.974Z,0.42
2022-09-12T18:11:34.990Z,0.47
2022-09-12T18:14:35.015Z,0.47
2022-09-12T18:17:35.011Z,0.29
2022-09-12T18:20:35.048Z,0.29
2022-09-12T18:23:35.017Z,0.38
2022-09-12T18:26:35.007Z,0.36
2022-09-12T18:29:35.018Z,0.13
2022-09-12T18:32:35.009Z,0.15
2022-09-12T18:35:35.020Z,0.14
2022-09-12T18:38:34.991Z,0.24
2022-09-12T18:41:35.049Z,0.37
2022-09-12T18:44:35.018Z,0.3
2022-09-12T18:47:35.065Z,0.33
2022-09-12T18:50:35.168Z,0.39
2022-09-12T18:53:35.109Z,0.31
2022-09-12T18:56:35.101Z,0.39
2022-09-12T18:59:35.061Z,0.24
2022-09-12T19:02:35.061Z,0.36
2022-09-12T19:05:35.069Z,0.47
2022-09-12T19:08:34.997Z,0.42
2022-09-12T19:11:35.075Z,0.36
2022-09-12T19:14:35.029Z,0.32
2022-09-12T19:17:35.063Z,0.16
2022-09-12T19:20:35.050Z,0.27
2022-09-12T19:23:35.040Z,0.3
2022-09-12T19:26:35.076Z,0.36
2022-09-12T19:29:35.056Z,0.31
2022-09-12T19:32:35.038Z,0.15
2022-09-12T19:35:35.055Z,0.19
2022-09-12T19:38:35.032Z,0.38
2022-09-12T19:41:35.072Z,0.27
2022-09-12T19:44:35.071Z,0.43
2022-09-12T19:47:35.031Z,0.24
2022-09-12T19:50:35.126Z,0.26
2022-09-12T19:53:35.019Z,0.32
2022-09-12T19:56:35.070Z,0.34
2022-09-12T19:59:35.082Z,0.63
2022-09-12T20:02:35.136Z,0.52
2022-09-12T20:05:36.735Z,0.35
2022-09-12T20:08:35.068Z,0.19
2022-09-12T20:11:35.079Z,0.19
2022-09-12T20:14:35.094Z,0.28
2022-09-12T20:17:35.085Z,0.32
2022-09-12T20:20:35.081Z,0.33
2022-09-12T20:23:35.086Z,0.17
2022-09-12T20:26:35.099Z,0.18
2022-09-12T20:29:35.084Z,0.11
2022-09-12T20:32:35.105Z,0.27
2022-09-12T20:35:35.080Z,0.32
2022-09-12T20:38:35.090Z,0.53
2022-09-12T20:41:35.100Z,0.52
2022-09-12T20:44:35.113Z,0.55
2022-09-12T20:47:35.145Z,0.19
2022-09-12T20:50:35.129Z,0.28
2022-09-12T20:53:35.544Z,0.12
2022-09-12T20:56:35.130Z,0.23
2022-09-12T20:59:35.096Z,0.1
2022-09-12T21:02:35.198Z,0.49
2022-09-12T21:05:35.094Z,0.41
2022-09-12T21:08:35.145Z,0.32
2022-09-12T21:11:35.099Z,0.28
2022-09-12T21:14:35.126Z,0.14
2022-09-12T21:17:35.131Z,0.31
2022-09-12T21:20:35.127Z,0.13
2022-09-12T21:23:35.124Z,0.2
2022-09-12T21:26:35.149Z,0.25
2022-09-12T21:29:35.134Z,0.24
2022-09-12T21:32:35.160Z,0.35
2022-09-12T21:35:35.172Z,0.45
2022-09-12T21:38:35.176Z,0.52
2022-09-12T21:41:35.144Z,0.41
2022-09-12T21:44:35.184Z,0.52
2022-09-12T21:47:35.110Z,0.51
2022-09-12T21:50:35.166Z,0.77
2022-09-12T21:53:35.156Z,0.69
2022-09-12T21:56:35.141Z,0.73
2022-09-12T21:59:35.249Z,1.04
2022-09-12T22:02:35.185Z,0.54
2022-09-12T22:05:35.176Z,0.57
2022-09-12T22:08:35.170Z,1.05
2022-09-12T22:11:35.195Z,0.86
2022-09-12T22:14:35.157Z,0.95
2022-09-12T22:17:35.169Z,0.92
2022-09-12T22:20:35.164Z,0.85
2022-09-12T22:23:35.165Z,0.64
2022-09-12T22:26:35.175Z,0.96
2022-09-12T22:29:35.196Z,1.2
2022-09-12T22:32:35.148Z,0.67
2022-09-12T22:35:35.205Z,1.13
2022-09-12T22:38:35.180Z,1.16
2022-09-12T22:41:35.211Z,0.97
2022-09-12T22:44:35.210Z,0.89
2022-09-12T22:47:35.186Z,1.07
2022-09-12T22:50:35.201Z,0.76
2022-09-12T22:53:35.219Z,1.08
2022-09-12T22:56:35.237Z,1.06
2022-09-12T22:59:35.225Z,1.12
2022-09-12T23:02:35.185Z,0.88
2022-09-12T23:05:35.255Z,0.96
2022-09-12T23:08:35.231Z,0.91
2022-09-12T23:11:35.219Z,1.11
2022-09-12T23:14:35.241Z,1.18
2022-09-12T23:17:35.258Z,1.12
2022-09-12T23:20:35.208Z,1.39
2022-09-12T23:23:35.246Z,1.02
2022-09-12T23:26:35.257Z,0.96
2022-09-12T23:29:35.323Z,1.12
2022-09-12T23:32:35.242Z,1.08
2022-09-12T23:35:35.245Z,1.24
2022-09-12T23:38:35.245Z,1.07
2022-09-12T23:41:35.226Z,1.22
2022-09-12T23:44:35.251Z,1.37
2022-09-12T23:47:35.249Z,1.08
2022-09-12T23:50:35.231Z,1.12
2022-09-12T23:53:35.276Z,1.14
2022-09-12T23:56:35.229Z,1.02
2022-09-12T23:59:35.255Z,0.93
